Time;durP1;ratioP1;P1;durP2;ratioP2;P2;SDS_P1;SDS_P2;PMS_P1;PMS_P2;Temp;Humidity;BMP_temperature;BMP_pressure;BME280_temperature;BME280_humidity;BME280_pressure;Samples;Min_cycle;Max_cycle;Signal;HPM_P1;HPM_P2
2021/07/06 00:02:20;;;;;;;0.70;0.70;;;24.10;59.50;;;;;;4974995;28;20224;-64
2021/07/06 00:04:50;;;;;;;1.33;0.90;;;24.10;59.40;;;;;;4988647;28;20224;-63
2021/07/06 00:07:18;;;;;;;1.70;1.00;;;24.10;59.50;;;;;;4982221;28;20726;-64
2021/07/06 00:09:46;;;;;;;0.90;0.90;;;24.00;59.50;;;;;;4984568;28;20203;-64
2021/07/06 00:12:14;;;;;;;0.90;0.80;;;24.10;59.40;;;;;;4981799;28;20189;-63
2021/07/06 00:14:40;;;;;;;0.83;0.70;;;24.10;59.40;;;;;;4982255;28;20215;-63
2021/07/06 00:17:07;;;;;;;1.40;0.90;;;24.10;59.50;;;;;;4981277;28;20213;-63
2021/07/06 00:19:35;;;;;;;1.10;0.80;;;24.10;59.50;;;;;;4983449;28;20254;-64
2021/07/06 00:22:03;;;;;;;1.73;1.10;;;24.00;59.40;;;;;;4988347;28;20405;-64
2021/07/06 00:24:29;;;;;;;1.00;0.57;;;24.00;59.40;;;;;;4990691;28;20557;-64
2021/07/06 00:26:56;;;;;;;1.50;0.80;;;24.00;59.40;;;;;;4986953;28;20220;-64
2021/07/06 00:29:23;;;;;;;1.60;0.70;;;24.00;59.50;;;;;;4980466;28;20209;-64
2021/07/06 00:31:50;;;;;;;1.23;0.80;;;24.00;59.50;;;;;;4985623;28;20195;-64
2021/07/06 00:34:17;;;;;;;1.00;0.70;;;24.00;59.60;;;;;;4986095;28;20203;-64
2021/07/06 00:36:43;;;;;;;1.37;0.80;;;24.00;59.50;;;;;;4980371;28;20626;-64
2021/07/06 00:39:10;;;;;;;1.10;1.00;;;24.00;59.60;;;;;;4993023;28;20295;-64
2021/07/06 00:41:39;;;;;;;1.10;0.77;;;24.00;59.70;;;;;;4988308;28;20208;-63
2021/07/06 00:44:13;;;;;;;1.23;0.70;;;24.00;59.60;;;;;;4987977;28;20215;-64
2021/07/06 00:46:40;;;;;;;0.70;0.70;;;24.00;59.60;;;;;;4992163;28;20231;-64
2021/07/06 00:49:07;;;;;;;1.73;0.63;;;24.00;59.60;;;;;;4986742;28;20204;-64
2021/07/06 00:51:34;;;;;;;0.70;0.70;;;24.00;59.70;;;;;;4990152;28;20205;-63
2021/07/06 00:54:02;;;;;;;0.90;0.90;;;24.00;59.70;;;;;;4983413;28;20690;-63
2021/07/06 00:56:29;;;;;;;0.73;0.70;;;24.00;60.30;;;;;;4989026;28;20208;-63
2021/07/06 00:58:56;;;;;;;0.80;0.80;;;24.00;59.70;;;;;;4993870;28;20235;-63
2021/07/06 01:01:30;;;;;;;0.60;0.60;;;24.00;59.70;;;;;;4980899;28;20236;-64
2021/07/06 01:03:56;;;;;;;0.63;0.57;;;24.00;59.70;;;;;;4987009;28;20207;-63
2021/07/06 01:06:23;;;;;;;1.00;0.70;;;24.00;59.80;;;;;;4989611;28;20220;-64
2021/07/06 01:08:52;;;;;;;0.97;0.70;;;24.00;59.80;;;;;;4983098;28;20201;-64
2021/07/06 01:11:20;;;;;;;0.40;0.40;;;23.90;59.80;;;;;;4988492;28;20196;-64
2021/07/06 01:13:48;;;;;;;0.80;0.80;;;24.00;59.80;;;;;;4991726;28;20194;-64
2021/07/06 01:16:15;;;;;;;1.20;0.80;;;24.00;60.40;;;;;;4993222;28;20200;-64
2021/07/06 01:18:42;;;;;;;1.27;0.67;;;24.00;59.80;;;;;;4986790;28;20243;-65
2021/07/06 01:21:09;;;;;;;0.80;0.70;;;24.00;59.80;;;;;;4989440;28;20211;-65
2021/07/06 01:23:36;;;;;;;0.97;0.60;;;23.90;59.80;;;;;;4991413;28;20568;-65
2021/07/06 01:26:05;;;;;;;0.50;0.50;;;24.00;59.80;;;;;;4989266;28;20638;-65
2021/07/06 01:28:34;;;;;;;1.27;0.60;;;24.00;59.90;;;;;;4993244;28;20195;-65
2021/07/06 01:31:01;;;;;;;0.57;0.57;;;24.00;59.80;;;;;;4993067;28;20201;-65
2021/07/06 01:33:29;;;;;;;0.70;0.70;;;23.90;59.80;;;;;;4989784;28;20212;-64
2021/07/06 01:36:07;;;;;;;0.87;0.60;;;24.00;59.80;;;;;;4988651;28;20197;-65
2021/07/06 01:38:35;;;;;;;0.50;0.50;;;23.90;59.80;;;;;;4983166;28;20763;-64
2021/07/06 01:41:04;;;;;;;0.90;0.90;;;23.90;59.90;;;;;;4991674;28;20197;-65
2021/07/06 01:43:31;;;;;;;0.70;0.70;;;23.90;59.90;;;;;;4982694;28;20185;-65
2021/07/06 01:45:59;;;;;;;0.60;0.60;;;23.90;59.90;;;;;;4991824;28;20208;-64
2021/07/06 01:48:25;;;;;;;0.70;0.67;;;24.00;60.00;;;;;;4989103;28;20200;-64
2021/07/06 01:50:52;;;;;;;0.60;0.60;;;23.90;59.90;;;;;;4978753;28;20201;-64
2021/07/06 01:53:23;;;;;;;1.17;0.60;;;23.90;59.90;;;;;;4990247;28;20200;-65
2021/07/06 01:55:52;;;;;;;0.60;0.60;;;23.90;60.00;;;;;;4990046;28;20207;-65
2021/07/06 01:58:21;;;;;;;0.70;0.60;;;23.90;60.00;;;;;;4990129;28;20204;-64
2021/07/06 02:00:51;;;;;;;0.90;0.60;;;23.90;60.00;;;;;;4985410;28;20215;-64
2021/07/06 02:03:18;;;;;;;1.10;0.60;;;23.90;60.00;;;;;;4987355;28;20830;-65
2021/07/06 02:05:47;;;;;;;0.60;0.60;;;23.90;60.00;;;;;;4989631;28;20212;-64
2021/07/06 02:08:17;;;;;;;0.50;0.50;;;23.90;60.00;;;;;;4986759;28;20502;-65
2021/07/06 02:10:46;;;;;;;0.77;0.77;;;23.90;60.10;;;;;;4987930;28;20200;-64
2021/07/06 02:13:19;;;;;;;0.60;0.60;;;23.90;60.10;;;;;;4991321;28;20200;-64
2021/07/06 02:15:48;;;;;;;0.77;0.60;;;23.90;60.00;;;;;;4985564;28;20203;-65
2021/07/06 02:18:19;;;;;;;0.70;0.60;;;23.90;60.10;;;;;;4986650;28;20215;-64
2021/07/06 02:20:49;;;;;;;1.50;0.80;;;23.90;60.10;;;;;;4986230;28;20708;-65
2021/07/06 02:23:16;;;;;;;0.60;0.60;;;23.90;60.10;;;;;;4998269;28;20727;-64
2021/07/06 02:25:44;;;;;;;0.70;0.60;;;23.90;60.10;;;;;;4977220;28;20209;-64
2021/07/06 02:28:11;;;;;;;0.43;0.43;;;23.90;60.10;;;;;;4991430;28;20235;-65
2021/07/06 02:30:38;;;;;;;0.57;0.57;;;23.90;60.10;;;;;;4981850;28;20207;-65
2021/07/06 02:33:05;;;;;;;1.40;0.60;;;23.90;60.10;;;;;;4986106;28;20205;-64
2021/07/06 02:35:31;;;;;;;2.00;0.83;;;23.90;60.10;;;;;;4990348;28;20208;-64
2021/07/06 02:37:59;;;;;;;0.93;0.50;;;23.90;60.10;;;;;;4984682;28;20228;-64
2021/07/06 02:40:27;;;;;;;0.90;0.50;;;23.90;60.10;;;;;;4977160;28;20253;-64
2021/07/06 02:42:56;;;;;;;1.07;0.60;;;23.90;60.10;;;;;;4987334;28;20201;-65
2021/07/06 02:45:23;;;;;;;2.20;0.50;;;23.90;60.80;;;;;;4987816;28;20634;-64
2021/07/06 02:47:50;;;;;;;0.60;0.60;;;23.90;60.10;;;;;;4975098;28;20220;-64
2021/07/06 02:50:19;;;;;;;1.33;0.60;;;23.80;60.10;;;;;;4988314;28;20899;-64
2021/07/06 02:52:46;;;;;;;0.40;0.40;;;23.90;60.10;;;;;;4984258;28;20216;-64
2021/07/06 02:55:14;;;;;;;0.57;0.50;;;23.80;60.10;;;;;;4974484;28;20208;-64
2021/07/06 02:57:41;;;;;;;0.73;0.50;;;23.80;60.10;;;;;;4970002;28;20227;-64
2021/07/06 03:00:12;;;;;;;0.50;0.50;;;23.80;60.10;;;;;;4979747;28;20736;-64
2021/07/06 03:02:45;;;;;;;0.53;0.50;;;23.90;60.20;;;;;;4988948;28;20643;-64
2021/07/06 03:05:13;;;;;;;0.73;0.70;;;23.80;60.10;;;;;;4979922;28;20223;-64
2021/07/06 03:07:41;;;;;;;0.60;0.60;;;23.80;60.10;;;;;;4982782;28;20688;-64
2021/07/06 03:10:14;;;;;;;0.80;0.57;;;23.90;60.10;;;;;;4989081;28;20207;-64
2021/07/06 03:12:42;;;;;;;0.50;0.40;;;23.80;60.10;;;;;;4986476;28;20212;-64
2021/07/06 03:15:12;;;;;;;0.80;0.50;;;23.80;60.10;;;;;;4985008;28;20212;-64
2021/07/06 03:17:39;;;;;;;0.60;0.60;;;23.80;60.10;;;;;;4986080;28;20562;-64
2021/07/06 03:20:07;;;;;;;0.90;0.70;;;23.80;60.10;;;;;;4980902;28;20212;-64
2021/07/06 03:22:34;;;;;;;0.50;0.50;;;23.80;60.00;;;;;;4981774;28;20231;-64
2021/07/06 03:25:02;;;;;;;0.53;0.53;;;23.80;60.10;;;;;;4986465;28;20639;-64
2021/07/06 03:27:29;;;;;;;0.70;0.70;;;23.80;60.10;;;;;;4980805;28;20559;-64
2021/07/06 03:29:56;;;;;;;0.60;0.50;;;23.80;60.10;;;;;;4982283;28;20575;-65
2021/07/06 03:32:23;;;;;;;0.40;0.40;;;23.80;60.10;;;;;;4987635;28;20208;-65
2021/07/06 03:34:50;;;;;;;0.83;0.70;;;23.80;60.10;;;;;;4981295;28;20219;-65
2021/07/06 03:37:16;;;;;;;0.60;0.60;;;23.80;60.10;;;;;;4978524;28;20838;-64
2021/07/06 03:39:43;;;;;;;0.90;0.60;;;23.80;60.10;;;;;;4989755;28;20211;-64
2021/07/06 03:42:11;;;;;;;0.50;0.50;;;23.80;60.10;;;;;;4982682;28;20224;-64
2021/07/06 03:44:38;;;;;;;2.30;0.60;;;23.80;60.10;;;;;;4976077;28;20573;-64
2021/07/06 03:47:05;;;;;;;0.57;0.50;;;23.80;60.10;;;;;;4990515;28;20220;-64
2021/07/06 03:49:33;;;;;;;0.60;0.60;;;23.80;60.10;;;;;;4988037;28;20206;-64
2021/07/06 03:52:01;;;;;;;0.93;0.60;;;23.80;60.10;;;;;;4988823;28;20196;-64
2021/07/06 03:54:28;;;;;;;0.63;0.50;;;23.80;60.10;;;;;;4989267;28;20192;-64
2021/07/06 03:56:55;;;;;;;0.53;0.50;;;23.80;60.10;;;;;;4978240;28;20781;-61
2021/07/06 03:59:22;;;;;;;1.07;0.60;;;23.80;60.00;;;;;;4986405;28;20215;-61
2021/07/06 04:01:49;;;;;;;0.97;0.60;;;23.80;60.10;;;;;;4988573;28;20292;-64
2021/07/06 04:04:17;;;;;;;0.60;0.60;;;23.80;60.00;;;;;;4984648;28;20666;-65
2021/07/06 04:06:44;;;;;;;0.40;0.40;;;23.80;60.00;;;;;;4986234;28;20619;-63
2021/07/06 04:09:10;;;;;;;0.73;0.50;;;23.80;59.90;;;;;;4988354;28;20711;-63
2021/07/06 04:11:37;;;;;;;1.03;0.80;;;23.70;59.80;;;;;;4984135;28;20525;-63
2021/07/06 04:14:05;;;;;;;0.40;0.40;;;23.80;59.90;;;;;;4972504;28;20395;-63
2021/07/06 04:16:31;;;;;;;0.43;0.43;;;23.80;59.90;;;;;;4986608;28;20216;-62
2021/07/06 04:18:58;;;;;;;0.73;0.40;;;23.70;59.80;;;;;;4980124;28;20247;-63
2021/07/06 04:21:25;;;;;;;0.40;0.40;;;23.70;59.80;;;;;;4973703;28;20248;-62
2021/07/06 04:23:52;;;;;;;1.07;0.90;;;23.80;59.90;;;;;;4988538;28;20212;-62
2021/07/06 04:26:19;;;;;;;0.50;0.50;;;23.70;59.80;;;;;;4979007;28;20203;-62
2021/07/06 04:28:46;;;;;;;0.60;0.60;;;23.70;59.80;;;;;;4986681;28;20209;-62
2021/07/06 04:31:13;;;;;;;0.97;0.60;;;23.70;59.70;;;;;;4984428;28;20209;-62
2021/07/06 04:33:40;;;;;;;0.63;0.57;;;23.70;59.70;;;;;;4977090;28;20292;-62
2021/07/06 04:36:07;;;;;;;0.53;0.50;;;23.70;59.70;;;;;;4978619;28;20212;-65
2021/07/06 04:38:34;;;;;;;2.10;0.70;;;23.70;59.70;;;;;;4981097;28;20248;-64
2021/07/06 04:41:01;;;;;;;0.77;0.70;;;23.80;59.90;;;;;;4989749;28;20284;-64
2021/07/06 04:43:27;;;;;;;0.80;0.70;;;23.80;60.30;;;;;;4983610;28;20941;-65
2021/07/06 04:45:54;;;;;;;0.70;0.63;;;23.80;60.30;;;;;;4973816;28;20559;-64
2021/07/06 04:48:21;;;;;;;7.10;0.80;;;23.90;60.30;;;;;;4984890;28;20220;-65
2021/07/06 04:50:48;;;;;;;1.10;0.87;;;23.90;60.30;;;;;;4980431;28;20205;-64
2021/07/06 04:53:16;;;;;;;2.07;0.80;;;23.90;60.30;;;;;;4983156;28;20192;-62
2021/07/06 04:55:42;;;;;;;1.17;0.77;;;23.90;60.60;;;;;;4989117;28;20204;-61
2021/07/06 04:58:09;;;;;;;1.40;0.80;;;23.90;60.30;;;;;;4977501;28;20213;-62
2021/07/06 05:00:36;;;;;;;1.37;0.70;;;23.90;60.30;;;;;;4985661;28;20205;-64
2021/07/06 05:03:03;;;;;;;1.17;0.60;;;24.00;60.30;;;;;;4986782;28;20609;-63
2021/07/06 05:05:30;;;;;;;1.20;0.60;;;23.90;60.10;;;;;;4985265;28;20784;-64
2021/07/06 05:07:57;;;;;;;0.67;0.67;;;23.90;60.10;;;;;;4992152;28;20232;-64
2021/07/06 05:10:24;;;;;;;1.57;0.60;;;24.00;60.20;;;;;;4984293;28;20211;-61
2021/07/06 05:12:50;;;;;;;1.73;1.07;;;23.90;60.10;;;;;;4982990;28;20224;-61
2021/07/06 05:15:17;;;;;;;1.27;0.70;;;24.00;60.60;;;;;;4975768;28;20197;-61
2021/07/06 05:17:44;;;;;;;0.77;0.70;;;23.90;60.10;;;;;;4992708;28;20200;-61
2021/07/06 05:20:13;;;;;;;0.70;0.70;;;23.90;60.10;;;;;;4990028;28;20221;-62
2021/07/06 05:22:42;;;;;;;1.43;0.70;;;23.90;60.10;;;;;;4992549;28;20348;-63
2021/07/06 05:25:09;;;;;;;2.37;0.63;;;23.90;60.10;;;;;;4985235;28;20201;-62
2021/07/06 05:27:37;;;;;;;3.47;1.70;;;23.90;60.10;;;;;;4980303;28;20232;-63
2021/07/06 05:30:06;;;;;;;5.17;2.10;;;23.90;60.20;;;;;;4986323;28;20205;-64
2021/07/06 05:32:36;;;;;;;10.83;2.43;;;23.90;60.10;;;;;;4983100;28;20198;-65
2021/07/06 05:35:04;;;;;;;7.20;2.63;;;23.90;60.10;;;;;;4981795;28;20298;-64
2021/07/06 05:37:31;;;;;;;13.17;4.47;;;23.90;60.10;;;;;;4982599;28;20228;-65
2021/07/06 05:39:58;;;;;;;11.73;4.50;;;23.90;60.10;;;;;;4972426;28;20664;-65
2021/07/06 05:42:25;;;;;;;14.13;5.27;;;23.90;60.10;;;;;;4981512;28;20204;-63
2021/07/06 05:44:51;;;;;;;16.27;5.53;;;23.90;60.20;;;;;;4981883;28;20206;-63
2021/07/06 05:47:18;;;;;;;11.90;4.77;;;23.90;60.20;;;;;;4982514;28;20599;-64
2021/07/06 05:49:45;;;;;;;14.47;5.43;;;23.90;60.10;;;;;;4986508;28;20201;-65
2021/07/06 05:52:12;;;;;;;13.47;4.67;;;23.90;60.20;;;;;;4981922;28;20816;-63
2021/07/06 05:54:39;;;;;;;13.03;4.40;;;23.90;60.30;;;;;;4979512;28;20220;-65
2021/07/06 05:57:05;;;;;;;12.37;5.20;;;23.90;60.40;;;;;;4976359;28;20275;-67
2021/07/06 05:59:32;;;;;;;8.70;4.17;;;23.90;60.40;;;;;;4989610;28;20200;-64
2021/07/06 06:01:59;;;;;;;12.20;4.30;;;23.90;60.60;;;;;;4986734;28;20506;-65
2021/07/06 06:04:27;;;;;;;14.10;3.83;;;23.90;60.90;;;;;;4990451;28;20201;-65
2021/07/06 06:06:54;;;;;;;10.60;4.00;;;24.00;61.00;;;;;;4985245;28;20196;-66
2021/07/06 06:09:21;;;;;;;10.97;3.73;;;24.00;61.00;;;;;;4983272;28;20216;-65
2021/07/06 06:11:47;;;;;;;9.70;3.73;;;24.00;60.90;;;;;;4988707;28;20200;-65
2021/07/06 06:14:15;;;;;;;8.40;3.40;;;24.00;61.00;;;;;;4980146;28;20209;-65
2021/07/06 06:16:42;;;;;;;6.27;2.80;;;24.10;61.00;;;;;;4983664;28;20539;-63
2021/07/06 06:19:09;;;;;;;7.07;3.10;;;24.10;60.90;;;;;;4987461;28;20260;-64
2021/07/06 06:21:35;;;;;;;10.33;2.73;;;24.10;60.80;;;;;;4980988;28;20208;-61
2021/07/06 06:24:02;;;;;;;4.60;2.40;;;24.10;60.80;;;;;;4979038;28;20764;-62
2021/07/06 06:26:29;;;;;;;4.53;2.17;;;24.10;60.70;;;;;;4984514;28;20200;-64
2021/07/06 06:28:56;;;;;;;7.30;3.07;;;24.10;60.70;;;;;;4989072;28;20217;-66
2021/07/06 06:31:23;;;;;;;12.77;5.17;;;24.20;60.60;;;;;;4985666;28;20622;-66
2021/07/06 06:33:50;;;;;;;21.83;7.63;;;24.20;60.70;;;;;;4980274;28;20212;-65
2021/07/06 06:36:17;;;;;;;20.63;7.77;;;24.20;61.50;;;;;;4979796;28;20215;-66
2021/07/06 06:38:43;;;;;;;20.43;6.53;;;24.20;60.70;;;;;;4981079;28;20241;-66
2021/07/06 06:41:11;;;;;;;18.10;6.13;;;24.20;60.60;;;;;;4975797;28;20212;-65
2021/07/06 06:43:38;;;;;;;19.23;6.73;;;24.30;60.60;;;;;;4985164;28;20200;-65
2021/07/06 06:46:05;;;;;;;13.17;4.93;;;24.30;60.50;;;;;;4985876;28;20212;-65
2021/07/06 06:48:32;;;;;;;16.13;4.40;;;24.30;60.40;;;;;;4986587;28;21092;-66
2021/07/06 06:50:59;;;;;;;14.40;12.25;;;24.30;60.30;;;;;;4982243;28;20520;-65
2021/07/06 06:53:26;;;;;;;18.43;11.97;;;24.70;59.30;;;;;;4984988;28;20201;-65
2021/07/06 06:55:53;;;;;;;15.37;11.50;;;24.70;59.80;;;;;;4991460;28;20222;-66
2021/07/06 06:58:20;;;;;;;14.83;10.57;;;24.60;59.90;;;;;;4985636;28;20196;-69
2021/07/06 07:00:47;;;;;;;15.53;10.77;;;24.60;60.40;;;;;;4982696;28;20266;-66
2021/07/06 07:03:14;;;;;;;12.37;9.97;;;24.60;61.00;;;;;;4981045;28;20201;-66
2021/07/06 07:05:41;;;;;;;11.87;9.60;;;24.70;61.30;;;;;;4978870;28;20200;-65
2021/07/06 07:08:07;;;;;;;11.50;10.13;;;24.70;61.30;;;;;;4979597;28;20728;-63
2021/07/06 07:10:35;;;;;;;7.97;3.17;;;24.70;61.30;;;;;;4985649;28;20735;-63
2021/07/06 07:13:02;;;;;;;8.37;3.13;;;25.20;59.70;;;;;;4982461;28;20451;-62
2021/07/06 07:15:29;;;;;;;7.70;3.17;;;25.50;58.80;;;;;;4976088;28;20408;-64
2021/07/06 07:17:56;;;;;;;5.85;2.53;;;25.70;58.40;;;;;;4984010;28;20411;-64
2021/07/06 07:20:23;;;;;;;7.53;2.60;;;25.80;58.00;;;;;;4981387;28;20898;-62
2021/07/06 07:22:50;;;;;;;5.95;2.40;;;25.90;57.70;;;;;;4989708;28;20849;-64
2021/07/06 07:25:18;;;;;;;5.57;2.60;;;25.90;57.50;;;;;;4982093;28;20412;-64
2021/07/06 07:27:45;;;;;;;6.30;2.10;;;25.90;57.30;;;;;;4984766;28;20408;-67
2021/07/06 07:30:14;;;;;;;4.13;1.87;;;26.00;57.30;;;;;;4979297;28;20209;-67
2021/07/06 07:32:41;;;;;;;3.40;1.77;;;25.70;57.70;;;;;;4977545;28;20209;-66
2021/07/06 07:35:09;;;;;;;3.70;1.40;;;25.60;58.40;;;;;;4987236;28;20201;-68
2021/07/06 07:37:36;;;;;;;3.70;1.50;;;25.50;58.40;;;;;;4974998;28;20701;-67
2021/07/06 07:40:05;;;;;;;4.60;1.47;;;25.40;58.60;;;;;;4982615;28;20209;-68
2021/07/06 07:42:32;;;;;;;2.30;1.23;;;25.40;58.70;;;;;;4978213;28;20553;-67
2021/07/06 07:44:58;;;;;;;2.17;1.20;;;25.30;58.80;;;;;;4978441;28;20205;-66
2021/07/06 07:47:25;;;;;;;3.27;1.40;;;25.30;58.80;;;;;;4987054;28;20228;-73
2021/07/06 07:49:52;;;;;;;2.13;1.10;;;25.20;58.80;;;;;;4983405;28;20224;-68
2021/07/06 07:52:19;;;;;;;3.33;1.10;;;25.30;58.80;;;;;;4982440;28;20205;-67
2021/07/06 07:54:46;;;;;;;3.40;1.03;;;25.30;58.90;;;;;;4982256;28;20619;-66
2021/07/06 07:57:23;;;;;;;1.00;0.90;;;25.30;58.80;;;;;;4982252;28;20200;-63
2021/07/06 07:59:55;;;;;;;3.00;0.93;;;25.30;58.70;;;;;;4987133;28;20844;-64
2021/07/06 08:02:23;;;;;;;2.37;0.83;;;25.30;58.70;;;;;;4976160;28;20631;-64
2021/07/06 08:04:51;;;;;;;2.43;1.03;;;25.30;58.70;;;;;;4978023;28;20236;-64
2021/07/06 08:07:18;;;;;;;3.90;1.10;;;25.30;58.40;;;;;;4978951;28;20201;-67
2021/07/06 08:09:45;;;;;;;1.70;0.70;;;25.20;57.60;;;;;;4985174;28;20807;-67
2021/07/06 08:12:12;;;;;;;2.33;1.30;;;25.20;57.20;;;;;;4981488;28;20431;-68
2021/07/06 08:14:38;;;;;;;7.00;1.60;;;25.20;57.00;;;;;;4972967;28;20197;-68
2021/07/06 08:17:05;;;;;;;6.20;1.40;;;25.20;57.20;;;;;;4977251;28;20211;-67
2021/07/06 08:19:32;;;;;;;3.50;1.67;;;25.10;57.50;;;;;;4975722;28;20553;-66
2021/07/06 08:21:59;;;;;;;2.97;1.20;;;25.20;56.90;;;;;;4981314;28;20208;-66
2021/07/06 08:24:26;;;;;;;5.07;1.07;;;25.10;56.80;;;;;;4977629;28;21139;-66
2021/07/06 08:26:53;;;;;;;3.67;1.20;;;25.10;56.70;;;;;;4988203;28;20216;-68
2021/07/06 08:29:20;;;;;;;1.53;0.70;;;25.10;56.70;;;;;;4981922;28;20247;-69
2021/07/06 08:31:47;;;;;;;2.27;0.60;;;25.20;56.60;;;;;;4981198;28;20541;-69
2021/07/06 08:34:14;;;;;;;1.00;0.90;;;25.20;56.60;;;;;;4978384;28;20215;-70
2021/07/06 08:36:41;;;;;;;0.80;0.60;;;25.10;56.50;;;;;;4984644;28;20230;-66
2021/07/06 08:39:08;;;;;;;2.87;0.73;;;25.20;56.50;;;;;;4983637;28;20204;-66
2021/07/06 08:41:35;;;;;;;1.03;0.60;;;25.20;56.50;;;;;;4983618;28;20200;-68
2021/07/06 08:44:03;;;;;;;;;;;25.20;56.30;;;;;;4981604;28;20197;-69
2021/07/06 08:46:30;;;;;;;;;;;25.20;56.10;;;;;;4977387;28;19972;-69
2021/07/06 08:48:58;;;;;;;;;;;25.10;55.80;;;;;;4982426;28;20356;-68
2021/07/06 08:51:25;;;;;;;;;;;25.10;55.60;;;;;;4983923;28;19922;-68
2021/07/06 08:53:52;;;;;;;;;;;25.10;55.50;;;;;;4985763;28;19926;-67
2021/07/06 08:56:19;;;;;;;;;;;25.10;55.40;;;;;;4981343;28;20668;-69
2021/07/06 08:58:46;;;;;;;;;;;25.10;55.40;;;;;;4983348;28;19941;-68
2021/07/06 09:01:13;;;;;;;;;;;25.10;55.30;;;;;;4987032;28;19938;-64
2021/07/06 09:03:51;;;;;;;;;;;25.00;55.30;;;;;;5000849;28;19922;-67
2021/07/06 09:06:17;;;;;;;;;;;25.00;55.20;;;;;;4989517;28;20519;-68
2021/07/06 09:08:50;;;;;;;;;;;25.00;55.10;;;;;;4987655;28;20135;-67
2021/07/06 09:11:18;;;;;;;;;;;25.00;55.20;;;;;;4984787;28;19922;-66
2021/07/06 09:13:45;;;;;;;;;;;25.10;55.10;;;;;;4986097;28;19933;-67
2021/07/06 09:16:19;;;;;;;;;;;25.10;55.00;;;;;;4989071;28;19929;-67
2021/07/06 09:18:49;;;;;;;;;;;25.00;54.90;;;;;;4988981;28;19934;-67
2021/07/06 09:21:16;;;;;;;;;;;25.10;54.90;;;;;;4987101;28;20291;-67
2021/07/06 09:23:44;;;;;;;;;;;25.10;54.80;;;;;;4990285;28;19928;-66
2021/07/06 09:26:32;;;;;;;;;;;25.10;54.70;;;;;;4989246;28;19926;-67
2021/07/06 09:29:00;;;;;;;;;;;25.10;54.50;;;;;;4987615;28;19935;-67
2021/07/06 09:31:28;;;;;;;;;;;25.10;54.30;;;;;;4985592;28;19952;-69
2021/07/06 09:33:57;;;;;;;;;;;25.00;54.00;;;;;;4984592;28;19929;-68
2021/07/06 09:36:50;;;;;;;;;;;25.00;53.90;;;;;;4989303;28;19930;-67
2021/07/06 09:39:19;;;;;;;;;;;25.00;53.90;;;;;;4980311;28;19933;-68
2021/07/06 09:41:53;;;;;;;;;;;25.00;54.00;;;;;;4980860;28;19994;-68
2021/07/06 09:44:21;;;;;;;;;;;25.00;54.00;;;;;;4980214;28;19925;-68
2021/07/06 09:46:49;;;;;;;;;;;25.00;53.80;;;;;;4984021;28;19951;-67
2021/07/06 09:49:18;;;;;;;;;;;25.10;53.80;;;;;;4978784;28;19930;-68
2021/07/06 09:51:55;;;;;;;;;;;25.00;53.70;;;;;;4991030;28;19987;-69
2021/07/06 09:54:29;;;;;;;;;;;25.00;53.80;;;;;;4983661;28;19921;-71
2021/07/06 09:57:03;;;;;;;;;;;25.10;54.00;;;;;;4992144;28;20014;-69
2021/07/06 09:59:30;;;;;;;;;;;25.10;54.00;;;;;;4989636;28;19922;-70
2021/07/06 10:02:03;;;;;;;;;;;25.20;53.90;;;;;;4981684;28;20255;-68
2021/07/06 10:04:32;;;;;;;;;;;25.10;53.70;;;;;;4988383;28;19922;-65
2021/07/06 10:07:00;;;;;;;;;;;25.10;53.10;;;;;;4984493;28;19958;-65
2021/07/06 10:09:27;;;;;;;;;;;25.10;51.70;;;;;;4980940;28;19932;-66
2021/07/06 10:11:54;;;;;;;;;;;25.00;51.30;;;;;;4986434;28;19941;-66
2021/07/06 10:14:20;;;;;;;;;;;25.00;50.70;;;;;;4985044;28;20402;-65
2021/07/06 10:16:47;;;;;;;;;;;24.90;50.30;;;;;;4988475;28;19925;-64
2021/07/06 10:19:14;;;;;;;;;;;24.80;50.20;;;;;;4983112;28;20331;-64
2021/07/06 10:21:41;;;;;;;;;;;24.80;50.50;;;;;;4985729;28;19922;-64
2021/07/06 10:24:08;;;;;;;;;;;24.70;50.60;;;;;;4987423;28;19926;-67
2021/07/06 10:26:36;;;;;;;;;;;24.70;51.20;;;;;;4984081;28;19925;-65
2021/07/06 10:29:03;;;;;;;;;;;24.70;51.10;;;;;;4979362;28;19921;-66
2021/07/06 10:31:30;;;;;;;;;;;24.70;51.30;;;;;;4985853;28;19922;-70
2021/07/06 10:33:58;;;;;;;;;;;24.60;52.00;;;;;;4980983;28;19980;-69
2021/07/06 10:36:34;;;;;;;;;;;24.60;52.30;;;;;;4982681;28;19930;-67
2021/07/06 10:39:01;;;;;;;;;;;24.70;52.90;;;;;;4982199;28;19922;-68
2021/07/06 10:41:34;;;;;;;;;;;24.80;53.10;;;;;;4984838;28;19930;-68
2021/07/06 10:44:02;;;;;;;;;;;24.80;52.10;;;;;;4981719;28;19922;-67
2021/07/06 10:46:41;;;;;;;;;;;24.90;52.10;;;;;;4983335;28;19921;-67
2021/07/06 10:49:28;;;;;;;;;;;24.90;52.10;;;;;;4980782;28;19941;-68
2021/07/06 10:51:56;;;;;;;;;;;24.90;52.50;;;;;;4983953;28;19940;-69
2021/07/06 10:54:22;;;;;;;;;;;25.00;52.20;;;;;;4980603;28;19929;-67
2021/07/06 10:56:51;;;;;;;;;;;25.00;52.20;;;;;;4986037;28;20375;-68
2021/07/06 10:59:35;;;;;;;;;;;25.00;52.40;;;;;;4980442;28;19922;-67
2021/07/06 11:02:04;;;;;;;;;;;25.00;52.20;;;;;;4986453;28;19933;-68
2021/07/06 11:04:37;;;;;;;;;;;25.10;52.40;;;;;;4987284;28;19933;-68
2021/07/06 11:07:04;;;;;;;;;;;25.10;52.20;;;;;;4984564;28;19921;-68
2021/07/06 11:09:33;;;;;;;;;;;25.20;52.30;;;;;;4982096;28;19922;-70
2021/07/06 11:12:24;;;;;;;;;;;25.20;52.20;;;;;;4998846;28;19991;-68
2021/07/06 11:14:52;;;;;;;;;;;25.30;52.20;;;;;;4991931;28;19956;-71
2021/07/06 11:17:37;;;;;;;;;;;25.30;52.60;;;;;;4988828;28;19929;-68
2021/07/06 11:20:05;;;;;;;;;;;25.30;52.20;;;;;;4992496;28;19922;-68
2021/07/06 11:22:39;;;;;;;;;;;25.40;51.60;;;;;;4989324;28;19948;-69
2021/07/06 11:25:38;;;;;;;;;;;25.40;52.10;;;;;;4989102;28;19932;-69
2021/07/06 11:28:12;;;;;;;;;;;25.40;52.10;;;;;;4981857;28;19964;-69
2021/07/06 11:30:40;;;;;;;;;;;25.40;52.10;;;;;;4984454;28;19976;-68
2021/07/06 11:33:08;;;;;;;;;;;25.40;51.50;;;;;;4975857;28;19922;-67
2021/07/06 11:35:39;;;;;;;;;;;25.50;51.10;;;;;;4986443;28;20605;-69
2021/07/06 11:38:26;;;;;;;;;;;25.50;51.30;;;;;;4988742;28;19967;-68
2021/07/06 11:40:58;;;;;;;;;;;25.50;51.90;;;;;;5001185;28;19928;-68
2021/07/06 11:43:26;;;;;;;;;;;25.50;51.90;;;;;;4983467;28;19932;-67
2021/07/06 11:45:57;;;;;;;;;;;25.50;52.10;;;;;;4989157;28;19956;-70
2021/07/06 11:48:25;;;;;;;;;;;25.50;51.80;;;;;;4992112;28;19922;-70
2021/07/06 11:50:52;;;;;;;;;;;25.60;52.20;;;;;;4988539;28;19996;-68
2021/07/06 11:53:23;;;;;;;;;;;25.60;52.50;;;;;;4988535;28;19956;-69
2021/07/06 11:55:50;;;;;;;;;;;25.60;51.90;;;;;;4981746;28;19959;-69
2021/07/06 11:58:20;;;;;;;;;;;25.70;51.00;;;;;;4980488;28;20319;-67
2021/07/06 12:00:47;;;;;;;;;;;25.70;50.60;;;;;;4977907;28;19955;-67
2021/07/06 12:03:18;;;;;;;;;;;25.70;51.10;;;;;;4981412;28;19990;-67
2021/07/06 12:05:46;;;;;;;;;;;25.70;51.40;;;;;;4969867;28;20365;-67
2021/07/06 12:08:16;;;;;;;;;;;25.70;51.20;;;;;;4982664;28;19972;-66
2021/07/06 12:10:55;;;;;;;;;;;25.70;51.20;;;;;;4981078;28;20449;-69
2021/07/06 12:13:23;;;;;;;;;;;25.70;50.90;;;;;;4981838;28;20387;-69
2021/07/06 12:15:50;;;;;;;;;;;25.70;50.90;;;;;;4994258;28;19943;-67
2021/07/06 12:18:17;;;;;;;;;;;25.70;50.90;;;;;;4991283;28;19936;-68
2021/07/06 12:20:54;;;;;;;;;;;25.70;50.80;;;;;;4998743;28;19941;-67
2021/07/06 12:23:21;;;;;;;;;;;25.70;51.20;;;;;;4984568;28;19940;-69
2021/07/06 12:25:48;;;;;;;;;;;25.70;51.40;;;;;;4979205;28;19952;-70
2021/07/06 12:28:16;;;;;;;;;;;25.70;50.60;;;;;;4990918;28;19945;-68
2021/07/06 12:30:43;;;;;;;;;;;25.80;50.70;;;;;;4988028;28;19969;-68
2021/07/06 12:33:24;;;;;;;;;;;25.80;50.20;;;;;;4990738;28;19933;-64
2021/07/06 12:35:55;;;;;;;;;;;25.70;49.90;;;;;;4989570;28;19946;-69
2021/07/06 12:38:27;;;;;;;;;;;25.70;48.20;;;;;;4983890;28;19963;-70
2021/07/06 12:40:53;;;;;;;;;;;25.70;49.20;;;;;;4987068;28;19935;-70
2021/07/06 12:43:22;;;;;;;;;;;25.60;49.80;;;;;;4982036;28;19953;-70
2021/07/06 12:45:52;;;;;;;;;;;25.70;49.70;;;;;;4982435;28;19962;-68
2021/07/06 12:48:26;;;;;;;;;;;25.70;49.80;;;;;;4985553;28;20005;-69
2021/07/06 12:50:53;;;;;;;;;;;25.80;49.30;;;;;;4981477;28;19953;-69
2021/07/06 12:53:23;;;;;;;;;;;25.80;49.90;;;;;;4987327;28;19935;-71
2021/07/06 12:55:50;;;;;;;;;;;25.80;49.90;;;;;;4983994;28;19949;-68
2021/07/06 12:58:17;;;;;;;;;;;25.80;49.70;;;;;;4989517;28;19926;-68
2021/07/06 13:00:45;;;;;;;;;;;25.80;49.90;;;;;;4981642;28;19929;-70
2021/07/06 13:03:20;;;;;;;;;;;25.90;48.90;;;;;;4990723;28;20002;-71
2021/07/06 13:05:48;;;;;;;;;;;25.90;49.60;;;;;;4981013;28;20423;-68
2021/07/06 13:08:25;;;;;;;;;;;25.90;49.40;;;;;;4994273;28;19937;-68
2021/07/06 13:11:03;;;;;;;;;;;25.90;49.60;;;;;;4983768;28;19959;-68
2021/07/06 13:13:31;;;;;;;;;;;25.90;49.90;;;;;;4985935;28;19939;-66
2021/07/06 13:15:59;;;;;;;;;;;25.90;50.00;;;;;;4983815;28;19948;-67
2021/07/06 13:18:43;;;;;;;;;;;26.00;49.90;;;;;;4986900;28;19943;-68
2021/07/06 13:21:11;;;;;;;;;;;25.90;49.50;;;;;;4985156;28;19922;-67
2021/07/06 13:23:39;;;;;;;;;;;25.90;49.90;;;;;;4989258;28;19980;-68